Time;durP1;ratioP1;P1;durP2;ratioP2;P2;SDS_P1;SDS_P2;PMS_P1;PMS_P2;Temp;Humidity;BMP_temperature;BMP_pressure;BME280_temperature;BME280_humidity;BME280_pressure;Samples;Min_cycle;Max_cycle;Signal;HPM_P1;HPM_P2
2021/03/22 00:01:59;0.00;0.00;0.62;0.00;0.00;0.62;2.40;1.30;;;22.70;24.20;;;;;;2245334;61;20369;-59
2021/03/22 00:04:43;0.00;0.00;0.62;0.00;0.00;0.62;5.57;1.23;;;22.60;24.10;;;;;;2245564;61;20471;-61
2021/03/22 00:07:28;0.00;0.00;0.62;0.00;0.00;0.62;2.27;1.37;;;22.70;24.20;;;;;;2245471;61;20398;-59
2021/03/22 00:10:14;0.00;0.00;0.62;0.00;0.00;0.62;1.60;1.10;;;22.60;24.10;;;;;;2245455;61;20400;-60
2021/03/22 00:13:00;0.00;0.00;0.62;0.00;0.00;0.62;2.60;1.30;;;22.70;24.20;;;;;;2245622;61;20373;-62
2021/03/22 00:15:45;0.00;0.00;0.62;0.00;0.00;0.62;2.43;1.30;;;22.60;24.10;;;;;;2244852;61;20412;-61
2021/03/22 00:18:34;0.00;0.00;0.62;0.00;0.00;0.62;1.70;1.13;;;22.60;24.10;;;;;;2245430;61;20421;-60
2021/03/22 00:21:20;0.00;0.00;0.62;0.00;0.00;0.62;2.73;1.40;;;22.60;24.20;;;;;;2245424;61;20416;-61
2021/03/22 00:24:06;0.00;0.00;0.62;0.00;0.00;0.62;2.40;1.10;;;22.60;24.10;;;;;;2245464;61;20405;-59
2021/03/22 00:26:51;0.00;0.00;0.62;0.00;0.00;0.62;2.00;1.33;;;22.60;24.20;;;;;;2247793;61;20388;-59
2021/03/22 00:29:35;0.00;0.00;0.62;0.00;0.00;0.62;2.87;1.23;;;22.60;24.20;;;;;;2245138;61;20367;-61
2021/03/22 00:32:20;0.00;0.00;0.62;0.00;0.00;0.62;1.90;1.23;;;22.60;24.20;;;;;;2245469;61;20369;-62
2021/03/22 00:35:06;0.00;0.00;0.62;0.00;0.00;0.62;1.47;1.03;;;22.60;24.20;;;;;;2247808;61;20416;-61
2021/03/22 00:37:51;0.00;0.00;0.62;0.00;0.00;0.62;2.00;1.20;;;22.60;24.20;;;;;;2247184;61;20368;-61
2021/03/22 00:40:40;0.00;0.00;0.62;0.00;0.00;0.62;2.80;1.27;;;22.60;24.20;;;;;;2245445;61;20368;-61
2021/03/22 00:43:26;0.00;0.00;0.62;0.00;0.00;0.62;2.40;0.93;;;22.60;24.80;;;;;;2245579;61;20384;-61
2021/03/22 00:46:11;0.00;0.00;0.62;0.00;0.00;0.62;1.70;1.03;;;22.60;24.20;;;;;;2245384;61;20401;-62
2021/03/22 00:48:56;0.00;0.00;0.62;0.00;0.00;0.62;3.60;1.20;;;22.60;24.20;;;;;;2245134;61;20376;-62
2021/03/22 00:51:40;0.00;0.00;0.62;0.00;0.00;0.62;2.13;1.10;;;22.60;24.20;;;;;;2244932;61;20400;-59
2021/03/22 00:54:25;0.00;0.00;0.62;0.00;0.00;0.62;2.40;0.93;;;22.60;24.20;;;;;;2247731;61;20840;-61
2021/03/22 00:57:10;0.00;0.00;0.62;0.00;0.00;0.62;2.00;1.20;;;22.60;24.20;;;;;;2245488;61;20359;-59
2021/03/22 00:59:56;0.00;0.00;0.62;0.00;0.00;0.62;2.00;1.20;;;22.60;24.20;;;;;;2244963;61;20366;-60
2021/03/22 01:02:40;0.00;0.00;0.62;0.00;0.00;0.62;1.67;0.90;;;22.60;24.20;;;;;;2245751;61;20366;-61
2021/03/22 01:05:26;0.00;0.00;0.62;0.00;0.00;0.62;3.83;1.47;;;22.60;24.30;;;;;;2245472;61;20590;-61
2021/03/22 01:08:11;0.00;0.00;0.62;0.00;0.00;0.62;1.47;0.80;;;22.60;24.30;;;;;;2245053;61;20469;-61
2021/03/22 01:10:59;0.00;0.00;0.62;0.00;0.00;0.62;2.20;1.00;;;22.60;24.30;;;;;;2245347;61;20490;-61
2021/03/22 01:13:47;0.00;0.00;0.62;0.00;0.00;0.62;2.47;1.10;;;22.60;24.30;;;;;;2244832;61;20755;-60
2021/03/22 01:16:36;0.00;0.00;0.62;0.00;0.00;0.62;1.60;1.17;;;22.60;24.30;;;;;;2245100;61;20646;-59
2021/03/22 01:19:24;0.00;0.00;0.62;0.00;0.00;0.62;1.93;1.17;;;22.60;24.30;;;;;;2245214;61;20395;-61
2021/03/22 01:22:09;0.00;0.00;0.62;0.00;0.00;0.62;2.23;1.20;;;22.60;24.30;;;;;;2244314;61;20364;-61
2021/03/22 01:24:53;0.00;0.00;0.62;0.00;0.00;0.62;2.37;1.47;;;22.60;24.30;;;;;;2245848;61;20384;-61
2021/03/22 01:27:39;0.00;0.00;0.62;0.00;0.00;0.62;3.20;1.20;;;22.60;24.30;;;;;;2245358;61;20395;-61
2021/03/22 01:30:31;0.00;0.00;0.62;0.00;0.00;0.62;3.00;1.27;;;22.60;24.30;;;;;;2244139;61;20373;-66
2021/03/22 01:33:19;0.00;0.00;0.62;0.00;0.00;0.62;1.40;0.90;;;22.60;24.30;;;;;;2245146;61;20717;-61
2021/03/22 01:36:11;0.00;0.00;0.62;0.00;0.00;0.62;2.33;1.10;;;22.60;24.40;;;;;;2245140;61;20409;-62
2021/03/22 01:39:01;0.00;0.00;0.62;0.00;0.00;0.62;1.90;0.90;;;22.60;24.40;;;;;;2245836;61;20578;-60
2021/03/22 01:42:08;0.00;0.00;0.62;0.00;0.00;0.62;1.97;1.00;;;22.60;24.40;;;;;;2245797;61;20376;-61
2021/03/22 01:44:57;0.00;0.00;0.62;0.00;0.00;0.62;4.63;1.10;;;22.60;24.40;;;;;;2245779;61;20433;-61
2021/03/22 01:47:42;0.00;0.00;0.62;0.00;0.00;0.62;2.77;1.33;;;22.60;24.50;;;;;;2246051;61;20448;-61
2021/03/22 01:50:31;0.00;0.00;0.62;0.00;0.00;0.62;3.20;1.27;;;22.60;24.40;;;;;;2245533;61;20361;-59
2021/03/22 01:53:16;0.00;0.00;0.62;0.00;0.00;0.62;2.57;1.40;;;22.60;24.40;;;;;;2246192;61;20513;-61
2021/03/22 01:56:12;0.00;0.00;0.62;0.00;0.00;0.62;4.70;1.83;;;22.60;24.40;;;;;;2245544;61;20397;-61
2021/03/22 01:58:57;0.00;0.00;0.62;0.00;0.00;0.62;8.73;1.77;;;22.60;24.30;;;;;;2245897;61;20364;-59
2021/03/22 02:01:47;0.00;0.00;0.62;0.00;0.00;0.62;5.00;1.50;;;22.60;24.30;;;;;;2246164;61;20368;-62
2021/03/22 02:04:32;0.00;0.00;0.62;0.00;0.00;0.62;3.70;1.20;;;22.50;24.20;;;;;;2246342;61;20736;-60
2021/03/22 02:07:18;0.00;0.00;0.62;0.00;0.00;0.62;4.03;1.47;;;22.60;24.20;;;;;;2245754;61;20434;-60
2021/03/22 02:10:04;0.00;0.00;0.62;0.00;0.00;0.62;3.77;1.47;;;22.50;24.10;;;;;;2245817;61;20365;-61
2021/03/22 02:12:48;0.00;0.00;0.62;0.00;0.00;0.62;5.50;2.07;;;22.50;24.00;;;;;;2245795;61;20518;-58
2021/03/22 02:15:33;0.00;0.00;0.62;0.00;0.00;0.62;4.40;1.87;;;22.50;24.00;;;;;;2246161;61;20724;-58
2021/03/22 02:18:28;0.00;0.00;0.62;0.00;0.00;0.62;4.17;1.50;;;22.50;24.00;;;;;;2245910;61;20368;-59
2021/03/22 02:22:02;0.00;0.00;0.62;0.00;0.00;0.62;2.93;1.43;;;22.50;24.00;;;;;;2245570;61;20735;-61
2021/03/22 02:25:19;0.00;0.00;0.62;0.00;0.00;0.62;5.80;1.60;;;22.40;24.40;;;;;;2245877;61;20428;-60
2021/03/22 02:28:42;0.00;0.00;0.62;0.00;0.00;0.62;4.70;1.73;;;22.40;23.90;;;;;;2245710;61;20430;-61
2021/03/22 02:32:20;0.00;0.00;0.62;0.00;0.00;0.62;3.50;1.87;;;22.40;23.90;;;;;;2246047;61;20764;-61
2021/03/22 02:35:17;0.00;0.00;0.62;0.00;0.00;0.62;5.80;2.23;;;22.40;23.90;;;;;;2233094;62;20464;-60
2021/03/22 02:38:07;0.00;0.00;0.62;0.00;0.00;0.62;3.50;1.53;;;22.30;23.80;;;;;;2233183;62;20379;-58
2021/03/22 02:40:58;0.00;0.00;0.62;0.00;0.00;0.62;3.83;1.90;;;22.30;23.80;;;;;;2245818;61;20448;-60
2021/03/22 02:43:42;0.00;0.00;0.62;0.00;0.00;0.62;5.33;1.93;;;22.30;23.80;;;;;;2245434;61;20393;-58
2021/03/22 02:46:28;0.00;0.00;0.62;0.00;0.00;0.62;4.17;2.00;;;22.30;23.80;;;;;;2245704;61;20413;-59
2021/03/22 02:49:16;0.00;0.00;0.62;0.00;0.00;0.62;3.20;1.73;;;22.30;23.70;;;;;;2246048;61;20389;-60
2021/03/22 02:52:20;0.00;0.00;0.62;0.00;0.00;0.62;4.73;1.80;;;22.30;23.70;;;;;;2245696;61;20490;-60
2021/03/22 02:55:15;0.00;0.00;0.62;0.00;0.00;0.62;6.53;2.60;;;22.30;23.70;;;;;;2245963;61;20391;-61
2021/03/22 02:58:05;0.00;0.00;0.62;0.00;0.00;0.62;5.50;2.03;;;22.30;23.70;;;;;;2245713;61;20472;-59
2021/03/22 03:00:59;0.00;0.00;0.62;0.00;0.00;0.62;4.40;2.13;;;22.30;23.70;;;;;;2245920;61;20417;-61
2021/03/22 03:03:46;0.00;0.00;0.62;0.00;0.00;0.62;3.83;1.90;;;22.20;23.70;;;;;;2246067;61;20756;-58
2021/03/22 03:06:44;0.00;0.00;0.62;0.00;0.00;0.62;6.00;2.00;;;22.20;23.60;;;;;;2245386;61;20621;-58
2021/03/22 03:09:32;0.00;0.00;0.62;0.00;0.00;0.62;6.60;2.57;;;22.20;23.60;;;;;;2245768;61;20374;-58
2021/03/22 03:12:20;0.00;0.00;0.62;0.00;0.00;0.62;3.53;2.03;;;22.20;23.60;;;;;;2245530;61;20373;-61
2021/03/22 03:15:08;0.00;0.00;0.62;0.00;0.00;0.62;5.03;1.93;;;22.20;23.70;;;;;;2245890;61;20397;-59
2021/03/22 03:17:53;0.00;0.00;0.62;0.00;0.00;0.62;4.40;2.47;;;22.20;23.70;;;;;;2245924;61;20368;-60
2021/03/22 03:20:37;0.00;0.00;0.62;0.00;0.00;0.62;3.97;2.00;;;22.20;23.60;;;;;;2244932;61;20424;-60
2021/03/22 03:23:22;0.00;0.00;0.62;0.00;0.00;0.62;4.40;1.77;;;22.10;23.60;;;;;;2246032;61;20393;-60
2021/03/22 03:26:07;0.00;0.00;0.62;0.00;0.00;0.62;5.37;1.97;;;22.10;23.60;;;;;;2246013;61;20500;-59
2021/03/22 03:28:52;0.00;0.00;0.62;0.00;0.00;0.62;5.00;2.20;;;22.10;23.60;;;;;;2245299;61;20396;-60
2021/03/22 03:31:37;0.00;0.00;0.62;0.00;0.00;0.62;6.37;2.80;;;22.10;23.60;;;;;;2245764;61;20397;-60
2021/03/22 03:34:22;0.00;0.00;0.62;0.00;0.00;0.62;4.80;2.33;;;22.00;23.50;;;;;;2245404;61;20460;-60
2021/03/22 03:37:08;0.00;0.00;0.62;0.00;0.00;0.62;5.37;2.00;;;22.10;23.60;;;;;;2245849;61;20370;-60
2021/03/22 03:39:52;0.00;0.00;0.62;0.00;0.00;0.62;3.00;1.70;;;22.00;23.50;;;;;;2245784;61;20369;-59
2021/03/22 03:42:38;0.00;0.00;0.62;0.00;0.00;0.62;4.03;2.37;;;22.00;23.50;;;;;;2245395;61;20400;-60
2021/03/22 03:45:26;0.00;0.00;0.62;0.00;0.00;0.62;5.80;2.10;;;22.00;23.50;;;;;;2246206;61;20378;-59
2021/03/22 03:48:14;0.00;0.00;0.62;0.00;0.00;0.62;4.43;2.40;;;22.00;23.50;;;;;;2245900;61;20525;-61
2021/03/22 03:51:02;0.00;0.00;0.62;0.00;0.00;0.62;3.90;1.90;;;22.00;23.50;;;;;;2244792;61;20405;-58
2021/03/22 03:53:46;0.00;0.00;0.62;0.00;0.00;0.62;4.97;2.00;;;22.00;23.50;;;;;;2245712;61;20412;-58
2021/03/22 03:56:31;0.00;0.00;0.62;0.00;0.00;0.62;4.63;2.40;;;22.00;23.50;;;;;;2247681;61;20671;-58
2021/03/22 03:59:17;0.00;0.00;0.62;0.00;0.00;0.62;4.03;1.97;;;22.00;23.50;;;;;;2245807;61;20379;-59
2021/03/22 04:02:02;0.00;0.00;0.62;0.00;0.00;0.62;3.73;1.93;;;21.90;23.40;;;;;;2245409;61;20374;-59
2021/03/22 04:04:46;0.00;0.00;0.62;0.00;0.00;0.62;4.10;2.20;;;21.90;23.40;;;;;;2245306;61;20603;-59
2021/03/22 04:07:31;0.00;0.00;0.62;0.00;0.00;0.62;4.67;2.17;;;21.90;23.40;;;;;;2246143;61;20672;-59
2021/03/22 04:10:16;0.00;0.00;0.62;0.00;0.00;0.62;7.50;3.13;;;21.90;23.40;;;;;;2245771;61;20368;-59
2021/03/22 04:13:01;0.00;0.00;0.62;0.00;0.00;0.62;6.03;2.47;;;21.90;23.40;;;;;;2245343;61;20633;-59
2021/03/22 04:15:47;0.00;0.00;0.62;0.00;0.00;0.62;4.80;2.47;;;21.80;23.30;;;;;;2245752;61;20476;-61
2021/03/22 04:18:34;0.00;0.00;0.62;0.00;0.00;0.62;4.97;2.07;;;21.80;23.30;;;;;;2245220;61;20586;-61
2021/03/22 04:21:24;0.00;0.00;0.62;0.00;0.00;0.62;5.60;2.23;;;21.80;23.30;;;;;;2245516;61;20420;-58
2021/03/22 04:24:09;0.00;0.00;0.62;0.00;0.00;0.62;7.10;2.30;;;21.80;23.30;;;;;;2245579;61;20393;-58
2021/03/22 04:26:54;0.00;0.00;0.62;0.00;0.00;0.62;4.40;1.83;;;21.80;23.30;;;;;;2245350;61;20480;-58
2021/03/22 04:29:39;0.00;0.00;0.62;0.00;0.00;0.62;5.40;1.63;;;21.80;23.30;;;;;;2245930;61;20413;-58
2021/03/22 04:32:24;0.00;0.00;0.62;0.00;0.00;0.62;4.60;2.53;;;21.70;23.30;;;;;;2245618;61;20371;-59
2021/03/22 04:35:10;0.00;0.00;0.62;0.00;0.00;0.62;4.43;1.83;;;21.70;23.30;;;;;;2245382;61;20757;-61
2021/03/22 04:37:55;0.00;0.00;0.62;0.00;0.00;0.62;6.70;1.93;;;21.70;23.30;;;;;;2245658;61;20728;-58
2021/03/22 04:40:40;0.00;0.00;0.62;0.00;0.00;0.62;3.43;1.60;;;21.70;23.30;;;;;;2245024;61;20719;-59
2021/03/22 04:43:25;0.00;0.00;0.62;0.00;0.00;0.62;4.30;1.77;;;21.70;23.30;;;;;;2245566;61;20396;-60
2021/03/22 04:46:10;0.00;0.00;0.62;0.00;0.00;0.62;4.60;2.10;;;21.70;23.30;;;;;;2245369;61;20368;-58
2021/03/22 04:48:56;0.00;0.00;0.62;0.00;0.00;0.62;6.60;2.20;;;21.70;23.30;;;;;;2247572;61;20441;-58
2021/03/22 04:51:40;0.00;0.00;0.62;0.00;0.00;0.62;7.23;1.73;;;21.70;23.30;;;;;;2245487;61;20380;-58
2021/03/22 04:54:25;0.00;0.00;0.62;0.00;0.00;0.62;6.50;2.40;;;21.70;23.40;;;;;;2245577;61;20385;-58
2021/03/22 04:57:13;0.00;0.00;0.62;0.00;0.00;0.62;5.03;2.10;;;21.70;23.30;;;;;;2245251;61;20368;-58
2021/03/22 04:59:59;0.00;0.00;0.62;0.00;0.00;0.62;4.83;2.10;;;21.60;23.30;;;;;;2245454;61;20371;-57
2021/03/22 05:02:44;0.00;0.00;0.62;0.00;0.00;0.62;6.13;2.20;;;21.60;23.30;;;;;;2245423;61;20383;-61
2021/03/22 05:05:29;0.00;0.00;0.62;0.00;0.00;0.62;2.83;1.47;;;21.60;23.30;;;;;;2245612;61;20592;-58
2021/03/22 05:08:18;0.00;0.00;0.62;0.00;0.00;0.62;6.80;2.57;;;21.60;23.30;;;;;;2245271;61;20389;-58
2021/03/22 05:11:04;0.00;0.00;0.62;0.00;0.00;0.62;9.00;2.00;;;21.60;23.30;;;;;;2244789;61;20432;-58
2021/03/22 05:13:48;0.00;0.00;0.62;0.00;0.00;0.62;4.13;1.77;;;21.50;23.30;;;;;;2245646;61;20386;-58
2021/03/22 05:16:33;0.00;0.00;0.62;0.00;0.00;0.62;4.87;1.87;;;21.60;23.30;;;;;;2246220;61;20396;-59
2021/03/22 05:19:17;0.00;0.00;0.62;0.00;0.00;0.62;3.60;2.23;;;21.60;23.30;;;;;;2245778;61;20630;-59
2021/03/22 05:22:03;0.00;0.00;0.62;0.00;0.00;0.62;3.90;1.50;;;21.50;23.30;;;;;;2245925;61;20481;-59
2021/03/22 05:24:48;0.00;0.00;0.62;0.00;0.00;0.62;4.77;1.73;;;21.50;23.30;;;;;;2248680;61;20620;-58
2021/03/22 05:27:33;0.00;0.00;0.62;0.00;0.00;0.62;6.00;2.10;;;21.50;23.30;;;;;;2246150;61;20453;-58
2021/03/22 05:30:19;0.00;0.00;0.62;0.00;0.00;0.62;6.47;2.33;;;21.50;23.30;;;;;;2246012;61;20371;-61
2021/03/22 05:33:07;0.00;0.00;0.62;0.00;0.00;0.62;6.47;1.90;;;21.50;23.30;;;;;;2245823;61;20446;-59
2021/03/22 05:35:55;0.00;0.00;0.62;0.00;0.00;0.62;5.53;2.70;;;21.50;23.30;;;;;;2248466;61;20367;-59
2021/03/22 05:38:42;0.00;0.00;0.62;0.00;0.00;0.62;5.33;2.00;;;21.50;23.30;;;;;;2245870;61;20369;-61
2021/03/22 05:41:29;0.00;0.00;0.62;0.00;0.00;0.62;4.10;2.00;;;21.40;23.30;;;;;;2245205;61;20486;-61
2021/03/22 05:44:30;0.00;0.00;0.62;0.00;0.00;0.62;4.20;2.23;;;21.50;23.30;;;;;;2246049;61;20405;-61
2021/03/22 05:47:23;0.00;0.00;0.62;0.00;0.00;0.62;3.97;1.73;;;21.40;23.30;;;;;;2245768;61;20791;-58
2021/03/22 05:50:13;0.00;0.00;0.62;0.00;0.00;0.62;4.73;2.60;;;21.40;23.20;;;;;;2246060;61;20716;-60
2021/03/22 05:53:09;0.00;0.00;0.62;0.00;0.00;0.62;6.73;2.40;;;21.40;23.20;;;;;;2246071;61;20369;-61
2021/03/22 05:55:55;0.00;0.00;0.62;0.00;0.00;0.62;7.07;2.13;;;21.40;23.20;;;;;;2245641;61;20369;-61
2021/03/22 05:59:20;0.00;0.00;0.62;0.00;0.00;0.62;3.87;2.00;;;21.40;23.20;;;;;;2248642;61;20430;-60
2021/03/22 06:02:14;0.00;0.00;0.62;0.00;0.00;0.62;4.67;1.93;;;21.40;23.20;;;;;;2245344;61;20365;-62
2021/03/22 06:05:04;0.00;0.00;0.62;0.00;0.00;0.62;6.50;2.00;;;21.40;23.20;;;;;;2245947;61;20380;-61
2021/03/22 06:07:54;0.00;0.00;0.62;0.00;0.00;0.62;6.57;1.90;;;21.40;23.30;;;;;;2245394;61;20448;-61
2021/03/22 06:10:46;0.00;0.00;0.62;0.00;0.00;0.62;9.57;2.43;;;21.30;23.30;;;;;;2245293;61;20838;-65
2021/03/22 06:13:47;0.00;0.00;0.62;0.00;0.00;0.62;4.63;1.60;;;21.30;23.30;;;;;;2246173;61;20393;-61
2021/03/22 06:16:36;0.00;0.00;0.62;0.00;0.00;0.62;3.17;1.77;;;21.30;23.30;;;;;;2246369;61;20486;-61
2021/03/22 06:19:21;0.00;0.00;0.62;0.00;0.00;0.62;3.40;2.10;;;21.30;23.40;;;;;;2245737;61;20404;-59
2021/03/22 06:22:06;0.00;0.00;0.62;0.00;0.00;0.62;5.40;2.47;;;21.30;23.40;;;;;;2245850;61;20768;-59
2021/03/22 06:24:51;0.00;0.00;0.62;0.00;0.00;0.62;4.33;2.40;;;21.30;23.30;;;;;;2245956;61;20443;-60
2021/03/22 06:27:36;0.00;0.00;0.62;0.00;0.00;0.62;7.07;2.20;;;21.30;23.30;;;;;;2246196;61;20397;-62
2021/03/22 06:30:25;0.00;0.00;0.62;0.00;0.00;0.62;4.17;2.73;;;21.30;23.30;;;;;;2245858;61;20397;-61
2021/03/22 06:33:22;0.00;0.00;0.62;0.00;0.00;0.62;7.00;3.20;;;21.30;23.30;;;;;;2245640;61;20372;-62
2021/03/22 06:36:11;0.00;0.00;0.62;0.00;0.00;0.62;7.47;3.33;;;21.30;23.30;;;;;;2246217;61;20399;-60
2021/03/22 06:38:59;0.00;0.00;0.62;0.00;0.00;0.62;7.27;3.47;;;21.30;23.30;;;;;;2246381;61;20401;-61
2021/03/22 06:41:47;0.00;0.00;0.62;0.00;0.00;0.62;7.40;3.83;;;21.30;23.30;;;;;;2246002;61;20390;-61
2021/03/22 06:44:40;0.00;0.00;0.62;0.00;0.00;0.62;7.33;4.20;;;21.30;23.30;;;;;;2245855;61;20392;-62
2021/03/22 06:47:29;0.00;0.00;0.62;0.00;0.00;0.62;6.30;4.90;;;21.30;23.30;;;;;;2245870;61;20431;-61
2021/03/22 06:50:26;0.00;0.00;0.62;0.00;0.00;0.62;8.80;5.83;;;21.30;23.30;;;;;;2246236;61;20377;-63
2021/03/22 06:53:11;0.00;0.00;0.62;0.00;0.00;0.62;8.83;5.43;;;21.30;23.30;;;;;;2245851;61;20589;-63
2021/03/22 06:56:09;0.00;0.00;0.62;0.00;0.00;0.62;8.87;6.07;;;21.30;23.30;;;;;;2245182;61;20445;-61
2021/03/22 06:59:14;0.00;0.00;0.62;0.00;0.00;0.62;9.63;5.10;;;21.30;23.30;;;;;;2245826;61;20392;-62
2021/03/22 07:02:19;0.00;0.00;0.62;0.00;0.00;0.62;6.30;5.30;;;21.20;23.30;;;;;;2245505;61;20471;-62
2021/03/22 07:05:28;0.00;0.00;0.62;0.00;0.00;0.62;7.37;5.33;;;21.30;23.40;;;;;;2245901;61;20449;-63
2021/03/22 07:08:18;0.00;0.00;0.62;0.00;0.00;0.62;8.67;4.60;;;21.30;23.40;;;;;;2245985;61;20408;-62
2021/03/22 07:11:10;0.00;0.00;0.62;0.00;0.00;0.62;10.00;4.20;;;21.30;23.40;;;;;;2245549;61;20586;-62
2021/03/22 07:13:59;0.00;0.00;0.62;0.00;0.00;0.62;8.07;4.87;;;21.30;23.40;;;;;;2245951;61;20663;-61
2021/03/22 07:16:43;0.00;0.00;0.62;0.00;0.00;0.62;4.93;3.93;;;21.30;23.40;;;;;;2245044;61;20394;-62
2021/03/22 07:19:28;0.00;0.00;0.62;0.00;0.00;0.62;4.37;3.63;;;21.30;23.40;;;;;;2245492;61;20619;-63
2021/03/22 07:22:23;0.00;0.00;0.62;0.00;0.00;0.62;5.10;4.40;;;21.30;23.40;;;;;;2246000;61;20574;-63
2021/03/22 07:25:32;0.00;0.00;0.62;0.00;0.00;0.62;4.97;3.73;;;21.30;23.40;;;;;;2245243;61;20385;-62
2021/03/22 07:28:26;0.00;0.00;0.62;0.00;0.00;0.62;6.63;4.03;;;21.30;23.40;;;;;;2245937;61;20401;-63
2021/03/22 07:31:24;0.00;0.00;0.62;0.00;0.00;0.62;4.60;3.80;;;21.30;23.40;;;;;;2247679;61;20361;-62
2021/03/22 07:34:28;0.00;0.00;0.62;0.00;0.00;0.62;5.50;4.00;;;21.30;23.50;;;;;;2245551;61;20386;-61
2021/03/22 07:37:35;0.00;0.00;0.62;0.00;0.00;0.62;5.13;4.30;;;21.30;23.50;;;;;;2245670;61;20412;-64
2021/03/22 07:40:34;0.00;0.00;0.62;0.00;0.00;0.62;6.40;4.30;;;21.30;23.40;;;;;;2245037;61;20368;-60
2021/03/22 07:43:53;0.00;0.00;0.62;0.00;0.00;0.62;4.60;3.03;;;21.30;23.40;;;;;;2245440;61;20846;-61
2021/03/22 07:46:55;0.00;0.00;0.62;0.00;0.00;0.62;4.77;3.80;;;21.30;24.00;;;;;;2245414;61;20369;-62
2021/03/22 07:49:56;0.00;0.00;0.62;0.00;0.00;0.62;4.40;4.00;;;21.40;23.50;;;;;;2245855;61;20589;-64
2021/03/22 07:52:48;0.00;0.00;0.62;0.00;0.00;0.62;6.30;4.27;;;21.30;23.50;;;;;;2245629;61;20380;-59
2021/03/22 07:55:55;0.00;0.00;0.62;0.00;0.00;0.62;5.17;3.67;;;21.40;23.50;;;;;;2247891;61;20729;-64
2021/03/22 07:58:59;0.00;0.00;0.62;0.00;0.00;0.62;5.50;4.33;;;21.40;23.50;;;;;;2245896;61;20369;-63
2021/03/22 08:02:10;0.00;0.00;0.62;0.00;0.00;0.62;3.87;3.47;;;21.40;23.50;;;;;;2245229;61;20369;-64
2021/03/22 08:05:04;0.00;0.00;0.62;0.00;0.00;0.62;4.70;3.87;;;21.40;23.50;;;;;;2245834;61;20392;-63
2021/03/22 08:07:58;0.00;0.00;0.62;0.00;0.00;0.62;4.40;3.23;;;21.40;23.50;;;;;;2245528;61;20409;-62
2021/03/22 08:10:55;0.00;0.00;0.62;0.00;0.00;0.62;5.40;4.07;;;21.40;23.50;;;;;;2245444;61;20454;-62
2021/03/22 08:13:48;0.00;0.00;0.62;0.00;0.00;0.62;4.83;3.50;;;21.40;23.50;;;;;;2245731;61;20807;-60
2021/03/22 08:17:07;0.00;0.00;0.62;0.00;0.00;0.62;5.57;4.77;;;21.40;23.50;;;;;;2245269;61;20376;-61
2021/03/22 08:20:00;0.00;0.00;0.62;0.00;0.00;0.62;5.07;3.60;;;21.40;24.00;;;;;;2245733;61;20482;-64
2021/03/22 08:22:55;0.00;0.00;0.62;0.00;0.00;0.62;4.10;3.67;;;21.40;23.50;;;;;;2245298;61;20368;-61
2021/03/22 08:25:48;0.00;0.00;0.62;0.00;0.00;0.62;4.83;3.53;;;21.40;23.50;;;;;;2247925;61;20382;-63
2021/03/22 08:28:38;0.00;0.00;0.62;0.00;0.00;0.62;4.93;3.63;;;21.40;23.50;;;;;;2245801;61;20392;-60
2021/03/22 08:31:28;0.00;0.00;0.62;0.00;0.00;0.62;5.30;3.30;;;21.40;23.50;;;;;;2245064;61;20618;-62
2021/03/22 08:34:23;0.00;0.00;0.62;0.00;0.00;0.62;3.73;3.10;;;21.50;23.60;;;;;;2245726;61;20487;-62
2021/03/22 08:37:14;0.00;0.00;0.62;0.00;0.00;0.62;4.80;3.40;;;21.50;23.60;;;;;;2245688;61;20360;-64
2021/03/22 08:40:04;0.00;0.00;0.62;0.00;0.00;0.62;3.97;3.27;;;21.50;23.50;;;;;;2245541;61;20422;-60
2021/03/22 08:42:53;0.00;0.00;0.62;0.00;0.00;0.62;3.73;2.90;;;21.50;23.50;;;;;;2245648;61;20389;-61
2021/03/22 08:45:50;0.00;0.00;0.62;0.00;0.00;0.62;4.13;2.90;;;21.50;23.50;;;;;;2245435;61;20775;-61
2021/03/22 08:48:35;0.00;0.00;0.62;0.00;0.00;0.62;4.37;3.30;;;21.50;23.50;;;;;;2245587;61;20439;-61
2021/03/22 08:51:26;0.00;0.00;0.62;0.00;0.00;0.62;4.57;3.23;;;21.50;23.50;;;;;;2245569;61;20404;-62
2021/03/22 08:54:23;0.00;0.00;0.62;0.00;0.00;0.62;3.60;2.97;;;21.50;23.50;;;;;;2245199;61;20382;-62
2021/03/22 08:57:22;0.00;0.00;0.62;0.00;0.00;0.62;3.50;2.93;;;21.50;23.50;;;;;;2245720;61;20679;-63
2021/03/22 09:00:30;0.00;0.00;0.62;0.00;0.00;0.62;3.60;3.23;;;21.50;23.50;;;;;;2245319;61;20437;-63
2021/03/22 09:03:32;0.00;0.00;0.62;0.00;0.00;0.62;4.20;2.70;;;21.60;23.50;;;;;;2245472;61;20477;-61
2021/03/22 09:06:21;0.00;0.00;0.62;0.00;0.00;0.62;3.70;2.80;;;21.60;23.50;;;;;;2245685;61;20401;-63
2021/03/22 09:09:21;0.00;0.00;0.62;0.00;0.00;0.62;3.13;2.70;;;21.60;23.50;;;;;;2245080;61;20505;-64
2021/03/22 09:12:30;0.00;0.00;0.62;0.00;0.00;0.62;3.97;2.97;;;21.60;23.50;;;;;;2245412;61;20362;-61
2021/03/22 09:15:31;0.00;0.00;0.62;0.00;0.00;0.62;4.27;3.50;;;21.60;23.50;;;;;;2245425;61;20625;-60
2021/03/22 09:18:21;0.00;0.00;0.62;0.00;0.00;0.62;4.40;2.80;;;21.60;23.50;;;;;;2245554;61;20401;-61
2021/03/22 09:21:23;0.00;0.00;0.62;0.00;0.00;0.62;3.97;2.27;;;21.60;23.60;;;;;;2245614;61;20352;-63
2021/03/22 09:24:45;0.00;0.00;0.62;0.00;0.00;0.62;4.77;3.60;;;21.60;24.00;;;;;;2245097;61;20684;-62
2021/03/22 09:27:33;0.00;0.00;0.62;0.00;0.00;0.62;3.33;3.00;;;21.70;23.50;;;;;;2245641;61;20419;-64
2021/03/22 09:30:40;0.00;0.00;0.62;0.00;0.00;0.62;3.50;2.47;;;21.60;23.50;;;;;;2245263;61;20376;-61
2021/03/22 09:33:51;0.00;0.00;0.62;0.00;0.00;0.62;3.40;2.67;;;21.70;23.50;;;;;;2245589;61;20457;-61
2021/03/22 09:36:38;0.00;0.00;0.62;0.00;0.00;0.62;3.20;2.70;;;21.70;23.50;;;;;;2245453;61;20575;-62
2021/03/22 09:39:46;0.00;0.00;0.62;0.00;0.00;0.62;3.80;2.90;;;21.70;23.50;;;;;;2245383;61;20420;-61
2021/03/22 09:42:32;0.00;0.00;0.62;0.00;0.00;0.62;3.57;2.40;;;21.70;23.50;;;;;;2245574;61;20374;-62
2021/03/22 09:45:21;0.00;0.00;0.62;0.00;0.00;0.62;3.60;2.53;;;21.70;23.50;;;;;;2245192;61;20396;-61
2021/03/22 09:48:22;0.00;0.00;0.62;0.00;0.00;0.62;3.63;2.50;;;21.70;23.50;;;;;;2245587;61;20421;-62
2021/03/22 09:51:29;0.00;0.00;0.62;0.00;0.00;0.62;4.63;2.77;;;21.70;23.50;;;;;;2245518;61;20399;-61
2021/03/22 09:54:37;0.00;0.00;0.62;0.00;0.00;0.62;3.50;2.50;;;21.70;23.50;;;;;;2245379;61;20704;-63
2021/03/22 09:57:43;0.00;0.00;0.62;0.00;0.00;0.62;3.87;2.70;;;21.80;23.60;;;;;;2245696;61;20424;-63
2021/03/22 10:00:56;0.00;0.00;0.62;0.00;0.00;0.62;2.70;2.30;;;21.80;23.50;;;;;;2245230;61;20425;-62
2021/03/22 10:04:22;0.00;0.00;0.62;0.00;0.00;0.62;3.00;2.43;;;21.80;23.50;;;;;;2246332;61;20395;-64
2021/03/22 10:07:19;0.00;0.00;0.62;0.00;0.00;0.62;2.70;2.40;;;21.80;23.50;;;;;;2245804;61;20404;-63
2021/03/22 10:10:22;0.00;0.00;0.62;0.00;0.00;0.62;2.47;1.90;;;21.80;23.50;;;;;;2246240;61;20445;-62
2021/03/22 10:13:16;0.00;0.00;0.62;0.00;0.00;0.62;3.60;2.40;;;21.80;23.50;;;;;;2246141;61;20363;-62
2021/03/22 10:16:11;0.00;0.00;0.62;0.00;0.00;0.62;2.70;1.90;;;21.90;23.60;;;;;;2245607;61;20373;-63
2021/03/22 10:19:00;0.00;0.00;0.62;0.00;0.00;0.62;3.50;2.27;;;21.90;23.70;;;;;;2246233;61;20412;-61
2021/03/22 10:21:48;0.00;0.00;0.62;0.00;0.00;0.62;3.60;2.17;;;21.90;23.60;;;;;;2245658;61;20392;-64
2021/03/22 10:24:45;0.00;0.00;0.62;0.00;0.00;0.62;3.50;2.10;;;21.90;23.60;;;;;;2245956;61;20501;-62
2021/03/22 10:27:33;0.00;0.00;0.62;0.00;0.00;0.62;2.73;2.20;;;22.00;23.70;;;;;;2246194;61;20387;-63
2021/03/22 10:30:25;0.00;0.00;0.62;0.00;0.00;0.62;3.13;2.40;;;22.00;23.70;;;;;;2247883;61;20578;-63
2021/03/22 10:33:15;0.00;0.00;0.62;0.00;0.00;0.62;3.67;2.27;;;22.00;24.20;;;;;;2246206;61;20365;-62
2021/03/22 10:36:03;0.00;0.00;0.62;0.00;0.00;0.62;2.30;2.10;;;22.00;23.70;;;;;;2245760;61;20409;-62
2021/03/22 10:38:52;0.00;0.00;0.62;0.00;0.00;0.62;3.83;2.87;;;22.00;23.70;;;;;;2245981;61;20442;-63
2021/03/22 10:41:40;0.00;0.00;0.62;0.00;0.00;0.62;3.07;2.23;;;22.00;23.60;;;;;;2246131;61;20635;-62
2021/03/22 10:44:33;0.00;0.00;0.62;0.00;0.00;0.62;2.60;1.87;;;22.10;23.70;;;;;;2245701;61;20380;-63
2021/03/22 10:47:22;0.00;0.00;0.62;0.00;0.00;0.62;3.33;2.40;;;22.10;23.70;;;;;;2246142;61;20780;-64
2021/03/22 10:50:19;0.00;0.00;0.62;0.00;0.00;0.62;3.03;2.33;;;22.10;23.60;;;;;;2246051;61;20374;-62
2021/03/22 10:53:09;0.00;0.00;0.62;0.00;0.00;0.62;2.73;2.20;;;22.10;23.60;;;;;;2248065;61;20369;-63
2021/03/22 10:55:53;0.00;0.00;0.62;0.00;0.00;0.62;2.90;2.00;;;22.20;23.70;;;;;;2246130;61;20777;-61
2021/03/22 10:58:38;0.00;0.00;0.62;0.00;0.00;0.62;2.60;1.90;;;22.20;23.70;;;;;;2245727;61;20389;-64
2021/03/22 11:01:24;0.00;0.00;0.62;0.00;0.00;0.62;3.67;2.30;;;22.20;23.70;;;;;;2245762;61;20365;-60
2021/03/22 11:04:18;0.00;0.00;0.62;0.00;0.00;0.62;2.83;2.37;;;22.20;23.70;;;;;;2245587;61;20674;-60
2021/03/22 11:07:12;0.00;0.00;0.62;0.00;0.00;0.62;3.40;2.30;;;22.20;23.70;;;;;;2245399;61;20475;-64
2021/03/22 11:10:00;0.00;0.00;0.62;0.00;0.00;0.62;3.10;2.03;;;22.20;23.70;;;;;;2246121;61;20386;-62
2021/03/22 11:12:49;0.00;0.00;0.62;0.00;0.00;0.62;2.33;1.77;;;22.30;23.70;;;;;;2245216;61;20403;-64
2021/03/22 11:15:36;0.00;0.00;0.62;0.00;0.00;0.62;2.40;1.87;;;22.30;23.70;;;;;;2245884;61;20438;-63
2021/03/22 11:18:22;0.00;0.00;0.62;0.00;0.00;0.62;2.37;2.17;;;22.30;23.70;;;;;;2245925;61;20361;-63